sensor_id;sensor_type;location;lat;lon;timestamp;P1;durP1;ratioP1;P2;durP2;ratioP2
36189;SDS011;22232;50.914;13.858;2023-07-22T00:00:22;4.57;;;3.95;;
36189;SDS011;22232;50.914;13.858;2023-07-22T00:02:50;5.07;;;3.60;;
36189;SDS011;22232;50.914;13.858;2023-07-22T00:05:18;6.47;;;3.85;;
36189;SDS011;22232;50.914;13.858;2023-07-22T00:07:50;4.60;;;3.97;;
36189;SDS011;22232;50.914;13.858;2023-07-22T00:10:18;5.75;;;3.75;;
36189;SDS011;22232;50.914;13.858;2023-07-22T00:12:46;7.40;;;3.85;;
36189;SDS011;22232;50.914;13.858;2023-07-22T00:15:13;5.43;;;3.40;;
36189;SDS011;22232;50.914;13.858;2023-07-22T00:17:41;4.43;;;3.72;;
36189;SDS011;22232;50.914;13.858;2023-07-22T00:20:11;5.30;;;3.38;;
36189;SDS011;22232;50.914;13.858;2023-07-22T00:22:39;4.47;;;3.50;;
36189;SDS011;22232;50.914;13.858;2023-07-22T00:25:07;4.57;;;3.25;;
36189;SDS011;22232;50.914;13.858;2023-07-22T00:27:38;8.27;;;3.90;;
36189;SDS011;22232;50.914;13.858;2023-07-22T00:30:06;7.90;;;3.60;;
36189;SDS011;22232;50.914;13.858;2023-07-22T00:32:35;3.85;;;3.03;;
36189;SDS011;22232;50.914;13.858;2023-07-22T00:35:05;6.55;;;3.55;;
36189;SDS011;22232;50.914;13.858;2023-07-22T00:37:34;5.35;;;3.55;;
36189;SDS011;22232;50.914;13.858;2023-07-22T00:40:02;4.35;;;3.20;;
36189;SDS011;22232;50.914;13.858;2023-07-22T00:42:39;7.72;;;4.22;;
36189;SDS011;22232;50.914;13.858;2023-07-22T00:45:07;4.88;;;3.38;;
36189;SDS011;22232;50.914;13.858;2023-07-22T00:47:35;10.73;;;4.03;;
36189;SDS011;22232;50.914;13.858;2023-07-22T00:50:04;6.53;;;3.70;;
36189;SDS011;22232;50.914;13.858;2023-07-22T00:52:33;10.07;;;3.72;;
36189;SDS011;22232;50.914;13.858;2023-07-22T00:55:02;5.35;;;3.67;;
36189;SDS011;22232;50.914;13.858;2023-07-22T00:57:32;8.07;;;3.78;;
36189;SDS011;22232;50.914;13.858;2023-07-22T01:00:00;6.32;;;4.13;;
36189;SDS011;22232;50.914;13.858;2023-07-22T01:02:27;9.63;;;3.70;;
36189;SDS011;22232;50.914;13.858;2023-07-22T01:04:56;4.72;;;3.60;;
36189;SDS011;22232;50.914;13.858;2023-07-22T01:07:24;5.53;;;3.88;;
36189;SDS011;22232;50.914;13.858;2023-07-22T01:09:55;5.40;;;3.72;;
36189;SDS011;22232;50.914;13.858;2023-07-22T01:12:24;6.88;;;4.03;;
36189;SDS011;22232;50.914;13.858;2023-07-22T01:14:52;9.32;;;4.43;;
36189;SDS011;22232;50.914;13.858;2023-07-22T01:17:20;9.80;;;3.80;;
36189;SDS011;22232;50.914;13.858;2023-07-22T01:19:48;7.20;;;3.97;;
36189;SDS011;22232;50.914;13.858;2023-07-22T01:22:16;6.85;;;3.72;;
36189;SDS011;22232;50.914;13.858;2023-07-22T01:24:44;8.07;;;4.32;;
36189;SDS011;22232;50.914;13.858;2023-07-22T01:27:13;8.25;;;3.53;;
36189;SDS011;22232;50.914;13.858;2023-07-22T01:29:41;9.52;;;4.38;;
36189;SDS011;22232;50.914;13.858;2023-07-22T01:32:09;8.02;;;3.67;;
36189;SDS011;22232;50.914;13.858;2023-07-22T01:34:37;5.80;;;4.22;;
36189;SDS011;22232;50.914;13.858;2023-07-22T01:37:06;5.68;;;3.88;;
36189;SDS011;22232;50.914;13.858;2023-07-22T01:39:34;6.10;;;4.22;;
36189;SDS011;22232;50.914;13.858;2023-07-22T01:42:02;8.23;;;5.20;;
36189;SDS011;22232;50.914;13.858;2023-07-22T01:44:31;6.75;;;4.75;;
36189;SDS011;22232;50.914;13.858;2023-07-22T01:47:01;8.18;;;5.28;;
36189;SDS011;22232;50.914;13.858;2023-07-22T01:49:30;8.45;;;5.10;;
36189;SDS011;22232;50.914;13.858;2023-07-22T01:51:57;8.88;;;5.60;;
36189;SDS011;22232;50.914;13.858;2023-07-22T01:54:25;8.77;;;5.70;;
36189;SDS011;22232;50.914;13.858;2023-07-22T01:56:53;5.47;;;4.97;;
36189;SDS011;22232;50.914;13.858;2023-07-22T01:59:21;9.95;;;5.88;;
36189;SDS011;22232;50.914;13.858;2023-07-22T02:01:49;9.18;;;6.15;;
36189;SDS011;22232;50.914;13.858;2023-07-22T02:04:17;8.40;;;5.47;;
36189;SDS011;22232;50.914;13.858;2023-07-22T02:06:45;6.72;;;5.63;;
36189;SDS011;22232;50.914;13.858;2023-07-22T02:09:13;11.23;;;6.13;;
36189;SDS011;22232;50.914;13.858;2023-07-22T02:11:41;8.02;;;5.38;;
36189;SDS011;22232;50.914;13.858;2023-07-22T02:14:09;10.48;;;6.20;;
36189;SDS011;22232;50.914;13.858;2023-07-22T02:16:36;9.70;;;5.93;;
36189;SDS011;22232;50.914;13.858;2023-07-22T02:19:05;13.88;;;6.57;;
36189;SDS011;22232;50.914;13.858;2023-07-22T02:21:40;11.57;;;6.43;;
36189;SDS011;22232;50.914;13.858;2023-07-22T02:24:08;10.50;;;6.22;;
36189;SDS011;22232;50.914;13.858;2023-07-22T02:26:36;9.95;;;6.47;;
36189;SDS011;22232;50.914;13.858;2023-07-22T02:29:03;10.68;;;6.60;;
36189;SDS011;22232;50.914;13.858;2023-07-22T02:31:31;9.38;;;6.00;;
36189;SDS011;22232;50.914;13.858;2023-07-22T02:33:59;9.25;;;6.63;;
36189;SDS011;22232;50.914;13.858;2023-07-22T02:36:27;10.73;;;6.55;;
36189;SDS011;22232;50.914;13.858;2023-07-22T02:38:55;10.00;;;6.47;;
36189;SDS011;22232;50.914;13.858;2023-07-22T02:41:23;10.52;;;6.82;;
36189;SDS011;22232;50.914;13.858;2023-07-22T02:43:50;11.98;;;6.78;;
36189;SDS011;22232;50.914;13.858;2023-07-22T02:46:18;11.23;;;8.32;;
36189;SDS011;22232;50.914;13.858;2023-07-22T02:48:46;11.35;;;7.18;;
36189;SDS011;22232;50.914;13.858;2023-07-22T02:51:13;11.82;;;7.10;;
36189;SDS011;22232;50.914;13.858;2023-07-22T02:53:41;10.15;;;7.07;;
36189;SDS011;22232;50.914;13.858;2023-07-22T02:56:12;11.82;;;7.82;;
36189;SDS011;22232;50.914;13.858;2023-07-22T02:58:40;8.55;;;6.72;;
36189;SDS011;22232;50.914;13.858;2023-07-22T03:01:09;11.65;;;7.18;;
36189;SDS011;22232;50.914;13.858;2023-07-22T03:03:37;11.63;;;7.40;;
36189;SDS011;22232;50.914;13.858;2023-07-22T03:06:07;12.30;;;7.60;;
36189;SDS011;22232;50.914;13.858;2023-07-22T03:08:37;14.30;;;8.10;;
36189;SDS011;22232;50.914;13.858;2023-07-22T03:11:05;9.63;;;7.57;;
36189;SDS011;22232;50.914;13.858;2023-07-22T03:13:33;13.48;;;8.45;;
36189;SDS011;22232;50.914;13.858;2023-07-22T03:16:02;10.45;;;7.88;;
36189;SDS011;22232;50.914;13.858;2023-07-22T03:18:31;11.02;;;8.55;;
36189;SDS011;22232;50.914;13.858;2023-07-22T03:20:59;11.00;;;8.88;;
36189;SDS011;22232;50.914;13.858;2023-07-22T03:23:27;11.65;;;8.35;;
36189;SDS011;22232;50.914;13.858;2023-07-22T03:25:55;10.32;;;7.72;;
36189;SDS011;22232;50.914;13.858;2023-07-22T03:28:22;13.73;;;8.07;;
36189;SDS011;22232;50.914;13.858;2023-07-22T03:30:50;13.18;;;8.18;;
36189;SDS011;22232;50.914;13.858;2023-07-22T03:33:18;14.88;;;8.10;;
36189;SDS011;22232;50.914;13.858;2023-07-22T03:35:46;13.18;;;7.97;;
36189;SDS011;22232;50.914;13.858;2023-07-22T03:38:13;10.02;;;7.15;;
36189;SDS011;22232;50.914;13.858;2023-07-22T03:40:41;12.27;;;7.43;;
36189;SDS011;22232;50.914;13.858;2023-07-22T03:43:09;10.07;;;7.28;;
36189;SDS011;22232;50.914;13.858;2023-07-22T03:45:37;11.60;;;8.05;;
36189;SDS011;22232;50.914;13.858;2023-07-22T03:48:06;12.13;;;7.75;;
36189;SDS011;22232;50.914;13.858;2023-07-22T03:50:34;8.88;;;6.80;;
36189;SDS011;22232;50.914;13.858;2023-07-22T03:53:02;10.65;;;6.88;;
36189;SDS011;22232;50.914;13.858;2023-07-22T03:55:30;12.38;;;7.18;;
36189;SDS011;22232;50.914;13.858;2023-07-22T03:57:57;10.40;;;6.70;;
36189;SDS011;22232;50.914;13.858;2023-07-22T04:00:25;10.15;;;6.43;;
36189;SDS011;22232;50.914;13.858;2023-07-22T04:02:53;10.70;;;6.10;;
36189;SDS011;22232;50.914;13.858;2023-07-22T04:05:21;9.32;;;6.15;;
36189;SDS011;22232;50.914;13.858;2023-07-22T04:07:48;8.77;;;6.03;;
36189;SDS011;22232;50.914;13.858;2023-07-22T04:10:16;7.60;;;5.40;;
36189;SDS011;22232;50.914;13.858;2023-07-22T04:12:44;9.20;;;6.22;;
36189;SDS011;22232;50.914;13.858;2023-07-22T04:15:12;5.90;;;4.90;;
36189;SDS011;22232;50.914;13.858;2023-07-22T04:17:39;8.70;;;4.90;;
36189;SDS011;22232;50.914;13.858;2023-07-22T04:20:08;9.30;;;4.75;;
36189;SDS011;22232;50.914;13.858;2023-07-22T04:22:36;8.07;;;5.22;;
36189;SDS011;22232;50.914;13.858;2023-07-22T04:25:04;10.02;;;5.50;;
36189;SDS011;22232;50.914;13.858;2023-07-22T04:27:32;6.75;;;4.90;;
36189;SDS011;22232;50.914;13.858;2023-07-22T04:30:01;9.77;;;5.18;;
36189;SDS011;22232;50.914;13.858;2023-07-22T04:32:28;5.72;;;4.20;;
36189;SDS011;22232;50.914;13.858;2023-07-22T04:34:56;11.65;;;5.10;;
36189;SDS011;22232;50.914;13.858;2023-07-22T04:37:24;7.55;;;4.78;;
36189;SDS011;22232;50.914;13.858;2023-07-22T04:39:52;4.60;;;4.10;;
36189;SDS011;22232;50.914;13.858;2023-07-22T04:42:19;5.40;;;4.50;;
36189;SDS011;22232;50.914;13.858;2023-07-22T04:44:47;8.57;;;4.10;;
36189;SDS011;22232;50.914;13.858;2023-07-22T04:47:15;5.70;;;3.75;;
36189;SDS011;22232;50.914;13.858;2023-07-22T04:49:43;9.82;;;4.75;;
36189;SDS011;22232;50.914;13.858;2023-07-22T04:52:11;5.85;;;4.03;;
36189;SDS011;22232;50.914;13.858;2023-07-22T04:54:38;5.10;;;3.58;;
36189;SDS011;22232;50.914;13.858;2023-07-22T04:57:06;6.07;;;3.60;;
36189;SDS011;22232;50.914;13.858;2023-07-22T04:59:34;6.15;;;4.30;;
36189;SDS011;22232;50.914;13.858;2023-07-22T05:02:02;7.57;;;3.63;;
36189;SDS011;22232;50.914;13.858;2023-07-22T05:04:29;5.60;;;4.10;;
36189;SDS011;22232;50.914;13.858;2023-07-22T05:06:57;6.45;;;4.22;;
36189;SDS011;22232;50.914;13.858;2023-07-22T05:09:25;6.35;;;3.95;;
36189;SDS011;22232;50.914;13.858;2023-07-22T05:11:52;6.68;;;4.00;;
36189;SDS011;22232;50.914;13.858;2023-07-22T05:14:20;7.35;;;3.58;;
36189;SDS011;22232;50.914;13.858;2023-07-22T05:16:48;7.40;;;4.20;;
36189;SDS011;22232;50.914;13.858;2023-07-22T05:19:16;6.85;;;4.40;;
36189;SDS011;22232;50.914;13.858;2023-07-22T05:21:43;5.47;;;4.13;;
36189;SDS011;22232;50.914;13.858;2023-07-22T05:24:11;7.75;;;3.83;;
36189;SDS011;22232;50.914;13.858;2023-07-22T05:26:39;5.65;;;3.70;;
36189;SDS011;22232;50.914;13.858;2023-07-22T05:29:18;4.80;;;3.92;;
36189;SDS011;22232;50.914;13.858;2023-07-22T05:31:45;6.03;;;3.70;;
36189;SDS011;22232;50.914;13.858;2023-07-22T05:34:13;5.75;;;3.70;;
36189;SDS011;22232;50.914;13.858;2023-07-22T05:36:41;6.45;;;3.72;;
36189;SDS011;22232;50.914;13.858;2023-07-22T05:39:09;7.70;;;3.65;;
36189;SDS011;22232;50.914;13.858;2023-07-22T05:41:37;9.43;;;4.57;;
36189;SDS011;22232;50.914;13.858;2023-07-22T05:44:07;7.28;;;3.97;;
36189;SDS011;22232;50.914;13.858;2023-07-22T05:46:35;5.72;;;4.53;;
36189;SDS011;22232;50.914;13.858;2023-07-22T05:49:03;8.63;;;3.97;;
36189;SDS011;22232;50.914;13.858;2023-07-22T05:51:31;5.40;;;4.18;;
36189;SDS011;22232;50.914;13.858;2023-07-22T05:53:58;4.95;;;4.20;;
36189;SDS011;22232;50.914;13.858;2023-07-22T05:56:26;6.20;;;3.80;;
36189;SDS011;22232;50.914;13.858;2023-07-22T05:58:54;4.68;;;3.80;;
36189;SDS011;22232;50.914;13.858;2023-07-22T06:01:23;6.40;;;4.20;;
36189;SDS011;22232;50.914;13.858;2023-07-22T06:03:52;6.10;;;4.10;;
36189;SDS011;22232;50.914;13.858;2023-07-22T06:06:20;6.72;;;3.80;;
36189;SDS011;22232;50.914;13.858;2023-07-22T06:08:50;4.50;;;4.10;;
36189;SDS011;22232;50.914;13.858;2023-07-22T06:11:18;6.63;;;4.32;;
36189;SDS011;22232;50.914;13.858;2023-07-22T06:13:45;5.30;;;3.70;;
36189;SDS011;22232;50.914;13.858;2023-07-22T06:16:13;7.93;;;4.32;;
36189;SDS011;22232;50.914;13.858;2023-07-22T06:18:41;5.53;;;4.22;;
36189;SDS011;22232;50.914;13.858;2023-07-22T06:21:08;9.07;;;4.63;;
36189;SDS011;22232;50.914;13.858;2023-07-22T06:23:36;6.13;;;4.78;;
36189;SDS011;22232;50.914;13.858;2023-07-22T06:26:04;7.43;;;4.82;;
36189;SDS011;22232;50.914;13.858;2023-07-22T06:28:31;7.03;;;4.80;;
36189;SDS011;22232;50.914;13.858;2023-07-22T06:30:59;9.07;;;4.72;;
36189;SDS011;22232;50.914;13.858;2023-07-22T06:33:27;7.80;;;5.28;;
36189;SDS011;22232;50.914;13.858;2023-07-22T06:35:55;7.10;;;4.43;;
36189;SDS011;22232;50.914;13.858;2023-07-22T06:38:22;7.68;;;4.53;;
36189;SDS011;22232;50.914;13.858;2023-07-22T06:40:53;6.88;;;4.20;;
36189;SDS011;22232;50.914;13.858;2023-07-22T06:43:21;6.30;;;4.20;;
36189;SDS011;22232;50.914;13.858;2023-07-22T06:45:49;8.23;;;4.65;;
36189;SDS011;22232;50.914;13.858;2023-07-22T06:48:16;6.63;;;4.18;;
36189;SDS011;22232;50.914;13.858;2023-07-22T06:50:47;5.15;;;4.13;;
36189;SDS011;22232;50.914;13.858;2023-07-22T06:53:16;8.63;;;4.30;;
36189;SDS011;22232;50.914;13.858;2023-07-22T06:55:52;4.90;;;3.65;;
36189;SDS011;22232;50.914;13.858;2023-07-22T06:58:20;10.15;;;4.60;;
36189;SDS011;22232;50.914;13.858;2023-07-22T07:00:56;7.30;;;4.75;;
36189;SDS011;22232;50.914;13.858;2023-07-22T07:03:23;6.43;;;4.25;;
36189;SDS011;22232;50.914;13.858;2023-07-22T07:05:55;7.00;;;4.65;;
36189;SDS011;22232;50.914;13.858;2023-07-22T07:08:23;6.18;;;4.75;;
36189;SDS011;22232;50.914;13.858;2023-07-22T07:10:51;9.45;;;4.72;;
36189;SDS011;22232;50.914;13.858;2023-07-22T07:13:18;8.43;;;4.53;;
36189;SDS011;22232;50.914;13.858;2023-07-22T07:15:47;6.38;;;5.07;;
36189;SDS011;22232;50.914;13.858;2023-07-22T07:18:18;7.97;;;4.70;;
36189;SDS011;22232;50.914;13.858;2023-07-22T07:20:46;6.25;;;4.50;;
36189;SDS011;22232;50.914;13.858;2023-07-22T07:27:02;7.25;;;4.68;;
36189;SDS011;22232;50.914;13.858;2023-07-22T07:29:30;7.95;;;4.57;;
36189;SDS011;22232;50.914;13.858;2023-07-22T07:32:00;5.80;;;4.38;;
36189;SDS011;22232;50.914;13.858;2023-07-22T07:34:28;5.57;;;4.57;;
36189;SDS011;22232;50.914;13.858;2023-07-22T07:36:56;5.53;;;4.45;;
36189;SDS011;22232;50.914;13.858;2023-07-22T07:39:24;5.13;;;4.15;;
36189;SDS011;22232;50.914;13.858;2023-07-22T07:41:51;7.50;;;4.90;;
36189;SDS011;22232;50.914;13.858;2023-07-22T07:44:19;6.28;;;4.53;;
36189;SDS011;22232;50.914;13.858;2023-07-22T07:46:47;10.00;;;4.93;;
36189;SDS011;22232;50.914;13.858;2023-07-22T07:49:15;8.50;;;5.10;;
36189;SDS011;22232;50.914;13.858;2023-07-22T07:51:42;6.32;;;4.72;;
36189;SDS011;22232;50.914;13.858;2023-07-22T07:54:10;8.23;;;5.07;;
36189;SDS011;22232;50.914;13.858;2023-07-22T07:56:38;7.72;;;4.43;;
36189;SDS011;22232;50.914;13.858;2023-07-22T07:59:05;7.68;;;5.20;;
36189;SDS011;22232;50.914;13.858;2023-07-22T08:01:36;6.55;;;5.03;;
36189;SDS011;22232;50.914;13.858;2023-07-22T08:04:09;6.15;;;4.60;;
36189;SDS011;22232;50.914;13.858;2023-07-22T08:06:36;10.32;;;4.93;;
36189;SDS011;22232;50.914;13.858;2023-07-22T08:09:05;8.90;;;4.38;;
36189;SDS011;22232;50.914;13.858;2023-07-22T08:11:32;5.53;;;4.05;;
36189;SDS011;22232;50.914;13.858;2023-07-22T08:14:00;9.18;;;5.13;;
36189;SDS011;22232;50.914;13.858;2023-07-22T08:16:28;9.27;;;4.53;;
36189;SDS011;22232;50.914;13.858;2023-07-22T08:18:57;6.00;;;4.60;;
36189;SDS011;22232;50.914;13.858;2023-07-22T08:21:24;7.28;;;5.05;;
36189;SDS011;22232;50.914;13.858;2023-07-22T08:23:52;12.05;;;5.55;;
36189;SDS011;22232;50.914;13.858;2023-07-22T08:26:20;6.35;;;5.10;;
36189;SDS011;22232;50.914;13.858;2023-07-22T08:28:49;8.68;;;5.35;;
36189;SDS011;22232;50.914;13.858;2023-07-22T08:31:16;6.60;;;4.68;;
36189;SDS011;22232;50.914;13.858;2023-07-22T08:33:44;6.63;;;4.88;;
36189;SDS011;22232;50.914;13.858;2023-07-22T08:36:11;7.32;;;4.75;;
36189;SDS011;22232;50.914;13.858;2023-07-22T08:38:39;6.45;;;4.80;;
36189;SDS011;22232;50.914;13.858;2023-07-22T08:41:07;5.82;;;4.78;;
36189;SDS011;22232;50.914;13.858;2023-07-22T08:43:35;7.53;;;4.22;;
36189;SDS011;22232;50.914;13.858;2023-07-22T08:46:07;5.65;;;3.90;;
36189;SDS011;22232;50.914;13.858;2023-07-22T08:48:36;6.30;;;4.05;;
36189;SDS011;22232;50.914;13.858;2023-07-22T08:51:17;6.97;;;3.95;;
36189;SDS011;22232;50.914;13.858;2023-07-22T08:53:46;4.18;;;3.25;;
36189;SDS011;22232;50.914;13.858;2023-07-22T08:56:34;4.82;;;3.97;;
36189;SDS011;22232;50.914;13.858;2023-07-22T08:59:03;8.88;;;4.38;;
36189;SDS011;22232;50.914;13.858;2023-07-22T09:01:33;6.78;;;4.25;;
36189;SDS011;22232;50.914;13.858;2023-07-22T09:04:04;4.13;;;3.53;;
36189;SDS011;22232;50.914;13.858;2023-07-22T09:06:32;6.07;;;3.42;;
36189;SDS011;22232;50.914;13.858;2023-07-22T09:09:01;6.13;;;3.80;;
36189;SDS011;22232;50.914;13.858;2023-07-22T09:11:34;7.28;;;3.60;;
36189;SDS011;22232;50.914;13.858;2023-07-22T09:14:03;4.70;;;3.22;;
36189;SDS011;22232;50.914;13.858;2023-07-22T09:16:33;3.42;;;2.67;;
36189;SDS011;22232;50.914;13.858;2023-07-22T09:19:04;3.60;;;2.90;;
36189;SDS011;22232;50.914;13.858;2023-07-22T09:21:32;3.88;;;3.10;;
36189;SDS011;22232;50.914;13.858;2023-07-22T09:24:23;4.88;;;3.03;;
36189;SDS011;22232;50.914;13.858;2023-07-22T09:26:51;3.83;;;3.30;;
36189;SDS011;22232;50.914;13.858;2023-07-22T09:29:35;4.05;;;3.20;;
36189;SDS011;22232;50.914;13.858;2023-07-22T09:32:04;3.20;;;2.70;;
36189;SDS011;22232;50.914;13.858;2023-07-22T09:34:32;6.63;;;3.20;;
36189;SDS011;22232;50.914;13.858;2023-07-22T09:37:00;6.95;;;3.08;;
36189;SDS011;22232;50.914;13.858;2023-07-22T09:39:28;5.55;;;2.55;;
36189;SDS011;22232;50.914;13.858;2023-07-22T09:41:57;5.03;;;2.78;;
36189;SDS011;22232;50.914;13.858;2023-07-22T09:44:32;4.38;;;3.10;;
36189;SDS011;22232;50.914;13.858;2023-07-22T09:47:05;3.42;;;2.75;;
36189;SDS011;22232;50.914;13.858;2023-07-22T09:49:39;4.57;;;2.90;;
36189;SDS011;22232;50.914;13.858;2023-07-22T09:54:46;3.58;;;2.33;;
36189;SDS011;22232;50.914;13.858;2023-07-22T09:57:17;3.38;;;2.53;;
36189;SDS011;22232;50.914;13.858;2023-07-22T09:59:45;2.35;;;2.13;;
36189;SDS011;22232;50.914;13.858;2023-07-22T10:02:16;2.63;;;2.15;;
36189;SDS011;22232;50.914;13.858;2023-07-22T10:04:46;2.63;;;2.30;;
36189;SDS011;22232;50.914;13.858;2023-07-22T10:07:16;1.77;;;1.65;;
36189;SDS011;22232;50.914;13.858;2023-07-22T10:09:44;2.92;;;2.40;;
36189;SDS011;22232;50.914;13.858;2023-07-22T10:12:14;5.15;;;2.58;;
36189;SDS011;22232;50.914;13.858;2023-07-22T10:14:42;3.47;;;2.75;;
36189;SDS011;22232;50.914;13.858;2023-07-22T10:17:12;3.00;;;2.28;;
36189;SDS011;22232;50.914;13.858;2023-07-22T10:19:41;4.63;;;2.10;;
36189;SDS011;22232;50.914;13.858;2023-07-22T10:22:09;2.72;;;2.50;;
36189;SDS011;22232;50.914;13.858;2023-07-22T10:24:38;5.00;;;2.22;;
36189;SDS011;22232;50.914;13.858;2023-07-22T10:27:08;3.25;;;2.40;;
36189;SDS011;22232;50.914;13.858;2023-07-22T10:29:36;2.55;;;2.33;;
36189;SDS011;22232;50.914;13.858;2023-07-22T10:32:05;2.95;;;2.10;;
36189;SDS011;22232;50.914;13.858;2023-07-22T10:34:33;4.70;;;3.00;;
36189;SDS011;22232;50.914;13.858;2023-07-22T10:37:01;2.40;;;2.20;;
36189;SDS011;22232;50.914;13.858;2023-07-22T10:39:31;4.82;;;2.53;;
36189;SDS011;22232;50.914;13.858;2023-07-22T10:42:00;2.75;;;2.55;;
36189;SDS011;22232;50.914;13.858;2023-07-22T10:44:35;3.45;;;2.63;;
36189;SDS011;22232;50.914;13.858;2023-07-22T10:47:05;2.67;;;2.25;;
36189;SDS011;22232;50.914;13.858;2023-07-22T10:49:45;2.40;;;2.13;;
36189;SDS011;22232;50.914;13.858;2023-07-22T10:52:36;3.30;;;2.47;;
36189;SDS011;22232;50.914;13.858;2023-07-22T10:55:15;3.13;;;2.60;;
36189;SDS011;22232;50.914;13.858;2023-07-22T10:57:50;3.28;;;2.35;;
36189;SDS011;22232;50.914;13.858;2023-07-22T11:00:20;2.63;;;2.15;;
36189;SDS011;22232;50.914;13.858;2023-07-22T11:03:08;2.70;;;2.33;;
36189;SDS011;22232;50.914;13.858;2023-07-22T11:05:47;3.58;;;2.60;;
36189;SDS011;22232;50.914;13.858;2023-07-22T11:08:16;4.93;;;2.30;;
36189;SDS011;22232;50.914;13.858;2023-07-22T11:10:53;4.72;;;2.42;;
36189;SDS011;22232;50.914;13.858;2023-07-22T11:13:27;2.47;;;2.28;;
36189;SDS011;22232;50.914;13.858;2023-07-22T11:15:58;3.38;;;2.60;;
36189;SDS011;22232;50.914;13.858;2023-07-22T11:18:39;3.00;;;2.30;;
36189;SDS011;22232;50.914;13.858;2023-07-22T11:21:12;2.80;;;2.50;;
36189;SDS011;22232;50.914;13.858;2023-07-22T11:23:40;3.50;;;2.65;;
36189;SDS011;22232;50.914;13.858;2023-07-22T11:26:07;2.63;;;2.42;;
36189;SDS011;22232;50.914;13.858;2023-07-22T11:28:35;2.63;;;2.42;;
36189;SDS011;22232;50.914;13.858;2023-07-22T11:31:03;4.07;;;2.50;;
36189;SDS011;22232;50.914;13.858;2023-07-22T11:33:39;3.95;;;2.33;;
36189;SDS011;22232;50.914;13.858;2023-07-22T11:36:07;3.08;;;2.55;;
36189;SDS011;22232;50.914;13.858;2023-07-22T11:38:35;2.75;;;2.50;;
36189;SDS011;22232;50.914;13.858;2023-07-22T11:41:03;3.50;;;2.63;;
36189;SDS011;22232;50.914;13.858;2023-07-22T11:43:31;2.90;;;2.60;;
36189;SDS011;22232;50.914;13.858;2023-07-22T11:45:59;2.95;;;2.10;;
36189;SDS011;22232;50.914;13.858;2023-07-22T11:48:27;2.60;;;2.40;;
36189;SDS011;22232;50.914;13.858;2023-07-22T11:50:58;3.03;;;2.50;;
36189;SDS011;22232;50.914;13.858;2023-07-22T11:53:26;2.50;;;2.30;;
36189;SDS011;22232;50.914;13.858;2023-07-22T11:55:57;4.00;;;2.70;;
36189;SDS011;22232;50.914;13.858;2023-07-22T11:58:25;2.40;;;2.20;;
36189;SDS011;22232;50.914;13.858;2023-07-22T12:01:06;4.50;;;2.53;;
36189;SDS011;22232;50.914;13.858;2023-07-22T12:03:37;2.83;;;2.63;;
36189;SDS011;22232;50.914;13.858;2023-07-22T12:06:07;2.58;;;2.38;;
36189;SDS011;22232;50.914;13.858;2023-07-22T12:08:36;3.42;;;2.47;;
36189;SDS011;22232;50.914;13.858;2023-07-22T12:11:04;3.22;;;2.42;;
36189;SDS011;22232;50.914;13.858;2023-07-22T12:13:35;3.08;;;2.58;;
36189;SDS011;22232;50.914;13.858;2023-07-22T12:16:04;2.88;;;2.55;;
36189;SDS011;22232;50.914;13.858;2023-07-22T12:18:42;3.85;;;2.50;;
36189;SDS011;22232;50.914;13.858;2023-07-22T12:21:11;2.50;;;2.30;;
36189;SDS011;22232;50.914;13.858;2023-07-22T12:23:40;2.58;;;2.38;;
36189;SDS011;22232;50.914;13.858;2023-07-22T12:26:08;3.65;;;2.53;;
36189;SDS011;22232;50.914;13.858;2023-07-22T12:28:36;2.25;;;2.05;;
36189;SDS011;22232;50.914;13.858;2023-07-22T12:31:04;2.63;;;2.42;;
36189;SDS011;22232;50.914;13.858;2023-07-22T12:33:32;2.35;;;2.15;;
36189;SDS011;22232;50.914;13.858;2023-07-22T12:35:59;3.08;;;2.20;;
36189;SDS011;22232;50.914;13.858;2023-07-22T12:38:27;2.85;;;2.63;;
36189;SDS011;22232;50.914;13.858;2023-07-22T12:40:55;2.58;;;2.30;;
36189;SDS011;22232;50.914;13.858;2023-07-22T12:43:22;2.50;;;2.30;;
36189;SDS011;22232;50.914;13.858;2023-07-22T12:45:50;3.00;;;2.70;;
36189;SDS011;22232;50.914;13.858;2023-07-22T12:48:18;3.50;;;2.20;;
36189;SDS011;22232;50.914;13.858;2023-07-22T12:50:46;2.50;;;2.30;;
36189;SDS011;22232;50.914;13.858;2023-07-22T12:53:16;2.83;;;1.98;;
36189;SDS011;22232;50.914;13.858;2023-07-22T12:55:44;2.78;;;2.50;;
36189;SDS011;22232;50.914;13.858;2023-07-22T12:58:13;2.50;;;2.30;;
36189;SDS011;22232;50.914;13.858;2023-07-22T13:00:41;5.47;;;2.50;;
36189;SDS011;22232;50.914;13.858;2023-07-22T13:03:09;3.28;;;2.50;;
36189;SDS011;22232;50.914;13.858;2023-07-22T13:05:37;2.47;;;2.28;;
36189;SDS011;22232;50.914;13.858;2023-07-22T13:08:04;2.38;;;2.15;;
36189;SDS011;22232;50.914;13.858;2023-07-22T13:10:32;4.35;;;2.58;;
36189;SDS011;22232;50.914;13.858;2023-07-22T13:13:03;2.33;;;2.13;;
36189;SDS011;22232;50.914;13.858;2023-07-22T13:15:32;3.00;;;2.33;;
36189;SDS011;22232;50.914;13.858;2023-07-22T13:18:00;2.85;;;2.55;;
36189;SDS011;22232;50.914;13.858;2023-07-22T13:20:28;2.90;;;2.50;;
36189;SDS011;22232;50.914;13.858;2023-07-22T13:22:56;4.03;;;2.63;;
36189;SDS011;22232;50.914;13.858;2023-07-22T13:25:25;3.00;;;2.40;;
36189;SDS011;22232;50.914;13.858;2023-07-22T13:27:52;3.00;;;2.70;;
36189;SDS011;22232;50.914;13.858;2023-07-22T13:30:20;3.53;;;2.72;;
36189;SDS011;22232;50.914;13.858;2023-07-22T13:32:48;3.03;;;2.72;;
36189;SDS011;22232;50.914;13.858;2023-07-22T13:35:15;5.10;;;2.97;;
36189;SDS011;22232;50.914;13.858;2023-07-22T13:37:43;2.95;;;2.55;;
36189;SDS011;22232;50.914;13.858;2023-07-22T13:40:11;6.32;;;2.80;;
36189;SDS011;22232;50.914;13.858;2023-07-22T13:42:39;2.70;;;2.30;;
36189;SDS011;22232;50.914;13.858;2023-07-22T13:45:07;4.28;;;2.72;;
36189;SDS011;22232;50.914;13.858;2023-07-22T13:47:35;2.75;;;2.55;;
36189;SDS011;22232;50.914;13.858;2023-07-22T13:50:03;3.08;;;2.40;;
36189;SDS011;22232;50.914;13.858;2023-07-22T13:52:31;2.60;;;2.40;;
36189;SDS011;22232;50.914;13.858;2023-07-22T13:54:59;3.17;;;2.70;;
36189;SDS011;22232;50.914;13.858;2023-07-22T13:57:27;2.85;;;2.50;;
36189;SDS011;22232;50.914;13.858;2023-07-22T13:59:55;2.58;;;2.38;;
36189;SDS011;22232;50.914;13.858;2023-07-22T14:02:23;3.72;;;2.47;;
36189;SDS011;22232;50.914;13.858;2023-07-22T14:04:51;3.05;;;2.42;;
36189;SDS011;22232;50.914;13.858;2023-07-22T14:07:19;2.70;;;2.47;;
36189;SDS011;22232;50.914;13.858;2023-07-22T14:09:47;4.38;;;2.60;;
36189;SDS011;22232;50.914;13.858;2023-07-22T14:12:14;4.68;;;2.85;;
36189;SDS011;22232;50.914;13.858;2023-07-22T14:14:42;3.38;;;2.90;;
36189;SDS011;22232;50.914;13.858;2023-07-22T14:17:10;3.45;;;2.88;;
36189;SDS011;22232;50.914;13.858;2023-07-22T14:19:38;3.42;;;2.22;;
36189;SDS011;22232;50.914;13.858;2023-07-22T14:22:05;3.47;;;2.47;;
36189;SDS011;22232;50.914;13.858;2023-07-22T14:24:33;2.90;;;2.60;;
36189;SDS011;22232;50.914;13.858;2023-07-22T14:27:04;3.15;;;2.85;;
36189;SDS011;22232;50.914;13.858;2023-07-22T14:29:32;3.15;;;2.72;;
36189;SDS011;22232;50.914;13.858;2023-07-22T14:32:00;3.17;;;2.75;;
36189;SDS011;22232;50.914;13.858;2023-07-22T14:34:27;4.05;;;2.70;;
36189;SDS011;22232;50.914;13.858;2023-07-22T14:36:55;3.38;;;3.05;;
36189;SDS011;22232;50.914;13.858;2023-07-22T14:39:23;3.65;;;2.95;;
36189;SDS011;22232;50.914;13.858;2023-07-22T14:41:50;11.85;;;7.35;;
36189;SDS011;22232;50.914;13.858;2023-07-22T14:44:18;11.35;;;7.28;;
36189;SDS011;22232;50.914;13.858;2023-07-22T14:46:46;7.50;;;5.35;;
36189;SDS011;22232;50.914;13.858;2023-07-22T14:49:14;14.27;;;9.90;;